Time;durP1;ratioP1;P1;durP2;ratioP2;P2;SDS_P1;SDS_P2;PMS_P1;PMS_P2;Temp;Humidity;BMP_temperature;BMP_pressure;BME280_temperature;BME280_humidity;BME280_pressure;Samples;Min_cycle;Max_cycle;Signal;HPM_P1;HPM_P2
2023/03/25 00:02:15;;;;;;;18.60;3.20;;;10.30;99.90;;;;;;4996065;28;20026;-73
2023/03/25 00:04:40;;;;;;;16.50;3.30;;;10.30;99.90;;;;;;4996703;28;20469;-74
2023/03/25 00:07:06;;;;;;;21.55;3.42;;;10.30;99.90;;;;;;5008737;28;20021;-74
2023/03/25 00:09:32;;;;;;;25.13;3.90;;;10.30;99.90;;;;;;5011414;28;20034;-73
2023/03/25 00:11:57;;;;;;;25.00;4.07;;;10.30;99.90;;;;;;4995963;28;20070;-73
2023/03/25 00:14:26;;;;;;;24.48;3.95;;;10.30;99.90;;;;;;4995753;28;20026;-74
2023/03/25 00:16:52;;;;;;;23.10;4.07;;;10.30;99.90;;;;;;4996176;28;20027;-74
2023/03/25 00:19:20;;;;;;;23.83;2.85;;;10.20;99.90;;;;;;4996010;28;20497;-74
2023/03/25 00:21:49;;;;;;;19.90;3.25;;;10.20;99.90;;;;;;4982392;28;20026;-73
2023/03/25 00:24:16;;;;;;;23.13;3.42;;;10.20;99.90;;;;;;4995669;28;20040;-73
2023/03/25 00:26:47;;;;;;;23.52;3.95;;;10.20;99.90;;;;;;4995693;28;20023;-74
2023/03/25 00:29:14;;;;;;;23.55;3.72;;;10.20;99.90;;;;;;4989613;28;20022;-73
2023/03/25 00:31:40;;;;;;;23.50;3.15;;;10.20;99.90;;;;;;5015912;28;20038;-73
2023/03/25 00:34:06;;;;;;;23.52;3.33;;;10.20;99.90;;;;;;4993546;28;20029;-74
2023/03/25 00:36:32;;;;;;;18.70;3.33;;;10.20;99.90;;;;;;4999381;28;20041;-73
2023/03/25 00:38:57;;;;;;;24.00;3.63;;;10.20;99.90;;;;;;5014299;28;20034;-73
2023/03/25 00:41:24;;;;;;;18.52;2.72;;;10.20;99.90;;;;;;5004924;28;20104;-74
2023/03/25 00:43:53;;;;;;;20.90;3.45;;;10.20;99.90;;;;;;5001966;28;20042;-74
2023/03/25 00:46:19;;;;;;;22.77;3.95;;;10.20;99.90;;;;;;4996222;28;20507;-73
2023/03/25 00:48:45;;;;;;;21.50;3.13;;;10.20;99.90;;;;;;4976135;28;20382;-74
2023/03/25 00:51:12;;;;;;;21.77;3.17;;;10.20;99.90;;;;;;4987670;28;20045;-74
2023/03/25 00:53:38;;;;;;;24.40;3.53;;;10.20;99.90;;;;;;4987349;28;20533;-74
2023/03/25 00:56:04;;;;;;;24.83;4.10;;;10.20;99.90;;;;;;4989697;28;20030;-74
2023/03/25 00:58:30;;;;;;;29.20;3.78;;;10.20;99.90;;;;;;4994958;28;20026;-74
2023/03/25 01:00:56;;;;;;;25.25;3.53;;;10.20;99.90;;;;;;4989865;28;20035;-73
2023/03/25 01:03:24;;;;;;;29.10;3.53;;;10.20;99.90;;;;;;4989538;28;20027;-74
2023/03/25 01:05:53;;;;;;;23.38;3.90;;;10.10;99.90;;;;;;4986005;28;20018;-74
2023/03/25 01:08:24;;;;;;;22.58;3.35;;;10.10;99.90;;;;;;4991964;28;20029;-73
2023/03/25 01:10:53;;;;;;;22.83;4.22;;;10.10;99.90;;;;;;4984892;28;20053;-75
2023/03/25 01:13:19;;;;;;;21.67;3.45;;;10.10;99.90;;;;;;4983174;28;20050;-74
2023/03/25 01:15:45;;;;;;;23.70;3.50;;;10.00;99.90;;;;;;4995111;28;20428;-74
2023/03/25 01:18:11;;;;;;;27.42;3.38;;;10.00;99.90;;;;;;5006174;28;20030;-74
2023/03/25 01:20:38;;;;;;;20.95;3.63;;;10.00;99.90;;;;;;4981205;28;20357;-74
2023/03/25 01:23:04;;;;;;;25.95;3.60;;;9.90;99.90;;;;;;4995022;28;20027;-74
2023/03/25 01:25:29;;;;;;;27.20;3.78;;;9.90;99.90;;;;;;4993959;28;20026;-74
2023/03/25 01:27:55;;;;;;;26.08;3.60;;;9.90;99.90;;;;;;4993296;28;20034;-75
2023/03/25 01:30:20;;;;;;;29.80;4.45;;;9.90;99.90;;;;;;4995050;28;20173;-75
2023/03/25 01:32:46;;;;;;;29.20;4.13;;;9.80;99.90;;;;;;4994516;28;20022;-74
2023/03/25 01:35:12;;;;;;;28.52;3.90;;;9.80;99.90;;;;;;4994412;28;20033;-74
2023/03/25 01:37:38;;;;;;;24.00;3.60;;;9.80;99.90;;;;;;4994239;28;20030;-74
2023/03/25 01:40:07;;;;;;;27.88;3.88;;;9.80;99.90;;;;;;4983021;28;20031;-75
2023/03/25 01:42:33;;;;;;;21.52;4.07;;;9.80;99.90;;;;;;4990890;28;20022;-74
2023/03/25 01:45:13;;;;;;;29.20;3.95;;;9.80;99.90;;;;;;4983847;28;20031;-74
2023/03/25 01:47:39;;;;;;;22.27;3.60;;;9.80;99.90;;;;;;4992162;28;20053;-74
2023/03/25 01:50:07;;;;;;;34.03;3.95;;;9.80;99.90;;;;;;4990212;28;20026;-74
2023/03/25 01:52:33;;;;;;;27.83;3.95;;;9.80;99.90;;;;;;4993666;28;20030;-74
2023/03/25 01:54:59;;;;;;;27.27;4.32;;;9.70;99.90;;;;;;4988032;28;20084;-74
2023/03/25 01:57:25;;;;;;;26.92;3.88;;;9.70;99.90;;;;;;4983002;28;20110;-74
2023/03/25 01:59:53;;;;;;;24.00;3.67;;;9.70;99.90;;;;;;4993516;28;20073;-74
2023/03/25 02:02:19;;;;;;;30.02;3.50;;;9.70;99.90;;;;;;4993485;28;20026;-73
2023/03/25 02:05:04;;;;;;;28.08;4.05;;;9.80;99.90;;;;;;4993892;28;20065;-74
2023/03/25 02:07:33;;;;;;;25.42;3.78;;;9.80;99.90;;;;;;4991812;28;20037;-73
2023/03/25 02:10:01;;;;;;;31.92;4.30;;;9.80;99.90;;;;;;4989720;28;20148;-73
2023/03/25 02:12:27;;;;;;;29.35;3.83;;;9.80;99.90;;;;;;4984849;28;20101;-74
2023/03/25 02:14:54;;;;;;;38.38;4.97;;;9.80;99.90;;;;;;4978648;28;20018;-73
2023/03/25 02:17:32;;;;;;;28.38;3.80;;;9.80;99.90;;;;;;4975450;28;20019;-74
2023/03/25 02:20:16;;;;;;;30.50;4.70;;;9.80;99.90;;;;;;4979010;28;20029;-74
2023/03/25 02:23:00;;;;;;;31.27;4.05;;;9.80;99.90;;;;;;4992676;28;20053;-75
2023/03/25 02:25:44;;;;;;;27.50;4.82;;;9.80;99.90;;;;;;4974342;28;20077;-74
2023/03/25 02:28:35;;;;;;;24.38;4.20;;;9.80;99.90;;;;;;4987632;28;20015;-73
2023/03/25 02:31:18;;;;;;;34.22;4.30;;;9.80;99.90;;;;;;4994563;28;20500;-74
2023/03/25 02:34:21;;;;;;;35.75;4.38;;;9.80;99.90;;;;;;4992963;28;20021;-74
2023/03/25 02:36:51;;;;;;;33.03;4.85;;;9.80;99.90;;;;;;4952764;29;20063;-74
2023/03/25 02:39:31;;;;;;;37.30;5.10;;;9.80;99.90;;;;;;4953511;29;20027;-74
2023/03/25 02:42:05;;;;;;;42.60;4.70;;;9.80;99.90;;;;;;4936916;29;20035;-74
2023/03/25 02:44:33;;;;;;;38.53;5.15;;;9.80;99.90;;;;;;4952619;29;20135;-73
2023/03/25 02:47:04;;;;;;;41.15;5.75;;;9.90;99.90;;;;;;4950900;29;20066;-74
2023/03/25 02:49:35;;;;;;;30.92;4.80;;;9.90;99.90;;;;;;4951170;29;20027;-73
2023/03/25 02:52:04;;;;;;;48.88;6.03;;;9.90;99.90;;;;;;4936175;29;20039;-74
2023/03/25 02:54:33;;;;;;;33.72;4.88;;;9.90;99.90;;;;;;4949907;29;20031;-74
2023/03/25 02:56:59;;;;;;;44.80;5.45;;;9.90;99.90;;;;;;4939733;29;20055;-74
2023/03/25 02:59:28;;;;;;;40.63;5.35;;;9.90;99.90;;;;;;4949742;29;20031;-74
2023/03/25 03:01:57;;;;;;;41.63;5.28;;;9.90;99.90;;;;;;4943322;29;20054;-74
2023/03/25 03:04:24;;;;;;;34.70;5.00;;;9.90;99.90;;;;;;4948471;29;20114;-74
2023/03/25 03:06:51;;;;;;;38.03;5.00;;;9.90;99.90;;;;;;4953014;29;20075;-73
2023/03/25 03:09:31;;;;;;;37.75;4.93;;;9.90;99.90;;;;;;4951887;29;20116;-73
2023/03/25 03:12:29;;;;;;;37.10;4.95;;;9.90;99.90;;;;;;4954151;28;20601;-73
2023/03/25 03:15:14;;;;;;;28.58;4.72;;;9.90;99.90;;;;;;4971966;28;20042;-74
2023/03/25 03:18:02;;;;;;;37.23;5.37;;;9.90;99.90;;;;;;4958603;28;20417;-74
2023/03/25 03:20:49;;;;;;;29.88;4.85;;;9.90;99.90;;;;;;4964983;28;20362;-74
2023/03/25 03:23:35;;;;;;;37.45;5.20;;;9.80;99.90;;;;;;4956587;28;20058;-74
2023/03/25 03:26:22;;;;;;;34.53;5.30;;;9.70;99.90;;;;;;4951878;28;20047;-74
2023/03/25 03:28:54;;;;;;;41.15;5.32;;;9.70;99.90;;;;;;4971226;28;20027;-75
2023/03/25 03:31:32;;;;;;;45.72;5.70;;;9.60;99.90;;;;;;4971091;28;20039;-74
2023/03/25 03:34:09;;;;;;;39.20;5.18;;;9.60;99.90;;;;;;4970561;28;20408;-74
2023/03/25 03:36:41;;;;;;;40.00;5.57;;;9.60;99.90;;;;;;4971445;28;20243;-74
2023/03/25 03:39:26;;;;;;;35.42;5.97;;;9.50;99.90;;;;;;4957781;28;20125;-74
2023/03/25 03:41:57;;;;;;;20.77;3.60;;;9.60;99.90;;;;;;4973692;28;20102;-74
2023/03/25 03:44:29;;;;;;;48.38;5.32;;;9.50;99.90;;;;;;4974624;28;20030;-74
2023/03/25 03:47:05;;;;;;;51.30;5.78;;;9.50;99.90;;;;;;4973933;28;20077;-74
2023/03/25 03:49:56;;;;;;;48.05;6.03;;;9.60;99.90;;;;;;4974271;28;20035;-74
2023/03/25 03:52:51;;;;;;;35.72;5.15;;;9.60;99.90;;;;;;4989552;28;20493;-74
2023/03/25 03:55:29;;;;;;;46.53;6.10;;;9.60;99.90;;;;;;4985506;28;20033;-74
2023/03/25 03:58:04;;;;;;;32.72;4.63;;;9.60;99.90;;;;;;4998571;28;20034;-74
2023/03/25 04:00:45;;;;;;;;;;;9.60;99.90;;;;;;4986600;28;20061;-73
2023/03/25 04:03:44;;;;;;;31.92;4.85;;;9.50;99.90;;;;;;4982619;28;19925;-74
2023/03/25 04:06:13;;;;;;;32.63;4.78;;;9.60;99.90;;;;;;4980067;28;20023;-73
2023/03/25 04:08:57;;;;;;;36.80;5.22;;;9.50;99.90;;;;;;4994863;28;20476;-74
2023/03/25 04:11:39;;;;;;;34.42;5.00;;;9.60;99.90;;;;;;5009201;28;20021;-74
2023/03/25 04:14:06;;;;;;;44.80;5.88;;;9.60;99.90;;;;;;4988096;28;20038;-74
2023/03/25 04:16:32;;;;;;;35.95;5.03;;;9.60;99.90;;;;;;4992519;28;20034;-73
2023/03/25 04:18:57;;;;;;;33.92;5.22;;;9.50;99.90;;;;;;4996628;28;20026;-73
2023/03/25 04:21:24;;;;;;;42.28;5.50;;;9.50;99.90;;;;;;5000421;28;20029;-73
2023/03/25 04:23:50;;;;;;;40.25;5.10;;;9.50;99.90;;;;;;4985902;28;20109;-74
2023/03/25 04:26:16;;;;;;;38.15;6.00;;;9.50;99.90;;;;;;4992098;28;20026;-74
2023/03/25 04:28:43;;;;;;;44.40;4.93;;;9.50;99.90;;;;;;4994652;28;20052;-74
2023/03/25 04:31:17;;;;;;;34.90;5.40;;;9.60;99.90;;;;;;4985886;28;20030;-74
2023/03/25 04:33:47;;;;;;;33.57;5.03;;;9.60;99.90;;;;;;5011481;28;20025;-74
2023/03/25 04:36:13;;;;;;;41.70;5.43;;;9.50;99.90;;;;;;5015289;28;20355;-74
2023/03/25 04:38:40;;;;;;;44.60;5.68;;;9.50;99.90;;;;;;4984880;28;20023;-73
2023/03/25 04:41:09;;;;;;;39.20;5.40;;;9.50;99.90;;;;;;4993795;28;20026;-74
2023/03/25 04:43:35;;;;;;;40.53;4.93;;;9.50;99.90;;;;;;5008584;28;20045;-74
2023/03/25 04:46:01;;;;;;;51.63;6.38;;;9.50;99.90;;;;;;4982357;28;20030;-74
2023/03/25 04:48:29;;;;;;;38.75;5.10;;;9.50;99.90;;;;;;4982614;28;20034;-74
2023/03/25 04:50:57;;;;;;;44.10;5.18;;;9.50;99.90;;;;;;4989279;28;20077;-74
2023/03/25 04:53:23;;;;;;;41.50;5.35;;;9.50;99.90;;;;;;4986851;28;20512;-74
2023/03/25 04:55:50;;;;;;;39.45;5.47;;;9.40;99.90;;;;;;4994257;28;20033;-74
2023/03/25 04:58:16;;;;;;;48.00;5.72;;;9.40;99.90;;;;;;4986219;28;20102;-74
2023/03/25 05:00:50;;;;;;;47.22;5.72;;;9.40;99.90;;;;;;4989428;28;20061;-74
2023/03/25 05:03:22;;;;;;;38.43;5.47;;;9.40;99.90;;;;;;5003797;28;20019;-74
2023/03/25 05:05:51;;;;;;;43.13;5.07;;;9.30;99.90;;;;;;5002418;28;20026;-74
2023/03/25 05:08:17;;;;;;;35.28;4.90;;;9.30;99.90;;;;;;4994868;28;20051;-74
2023/03/25 05:10:43;;;;;;;37.60;5.30;;;9.30;99.90;;;;;;4981836;28;20402;-74
2023/03/25 05:13:11;;;;;;;41.75;5.10;;;9.30;99.90;;;;;;4992378;28;20095;-74
2023/03/25 05:15:40;;;;;;;39.05;5.60;;;9.30;99.90;;;;;;4994217;28;20027;-74
2023/03/25 05:18:12;;;;;;;40.00;5.70;;;9.30;99.90;;;;;;5008140;28;20023;-74
2023/03/25 05:20:39;;;;;;;49.80;5.40;;;9.20;99.90;;;;;;4994639;28;20093;-74
2023/03/25 05:23:11;;;;;;;29.38;4.43;;;9.20;99.90;;;;;;4994495;28;20384;-73
2023/03/25 05:25:37;;;;;;;39.13;5.72;;;9.20;99.90;;;;;;4983939;28;20494;-74
2023/03/25 05:28:04;;;;;;;37.33;5.65;;;9.20;99.90;;;;;;4990524;28;20018;-74
2023/03/25 05:30:32;;;;;;;37.92;5.38;;;9.20;99.90;;;;;;4993805;28;20026;-74
2023/03/25 05:32:58;;;;;;;43.22;5.10;;;9.30;99.90;;;;;;5005312;28;20108;-74
2023/03/25 05:35:28;;;;;;;45.83;5.50;;;9.30;99.90;;;;;;4982168;28;20026;-75
2023/03/25 05:37:54;;;;;;;37.42;4.93;;;9.30;99.90;;;;;;4984673;28;20498;-75
2023/03/25 05:40:20;;;;;;;38.33;5.63;;;9.30;99.90;;;;;;4977151;28;20039;-75
2023/03/25 05:42:47;;;;;;;40.85;5.20;;;9.30;99.90;;;;;;4993628;28;20025;-74
2023/03/25 05:45:15;;;;;;;33.55;4.88;;;9.30;99.90;;;;;;4993484;28;20099;-74
2023/03/25 05:47:41;;;;;;;36.05;5.55;;;9.40;99.90;;;;;;4979878;28;20081;-75
2023/03/25 05:50:07;;;;;;;35.45;5.35;;;9.40;99.90;;;;;;5006092;28;20481;-74
2023/03/25 05:52:33;;;;;;;37.40;5.10;;;9.40;99.90;;;;;;5009097;28;20023;-72
2023/03/25 05:54:58;;;;;;;43.42;5.78;;;9.40;99.90;;;;;;5004172;28;20022;-73
2023/03/25 05:57:24;;;;;;;34.67;5.20;;;9.40;99.90;;;;;;4999269;28;20026;-73
2023/03/25 05:59:50;;;;;;;38.15;5.22;;;9.40;99.90;;;;;;5006299;28;20027;-73
2023/03/25 06:02:16;;;;;;;36.40;5.05;;;9.40;99.90;;;;;;4987657;28;20030;-74
2023/03/25 06:04:42;;;;;;;40.33;5.95;;;9.40;99.90;;;;;;4990758;28;20038;-75
2023/03/25 06:07:18;;;;;;;42.97;5.13;;;9.40;99.90;;;;;;4984909;28;20033;-74
2023/03/25 06:09:48;;;;;;;36.65;5.50;;;9.40;99.90;;;;;;4993203;28;20015;-74
2023/03/25 06:12:18;;;;;;;44.40;5.95;;;9.40;99.90;;;;;;4987248;28;20583;-74
2023/03/25 06:14:45;;;;;;;38.35;5.43;;;9.40;99.90;;;;;;4990757;28;20373;-73
2023/03/25 06:17:15;;;;;;;34.50;5.18;;;9.40;99.90;;;;;;4988852;28;20473;-74
2023/03/25 06:19:41;;;;;;;51.22;5.03;;;9.40;99.90;;;;;;4991470;28;20033;-73
2023/03/25 06:22:09;;;;;;;40.42;4.72;;;9.40;99.90;;;;;;4984531;28;20392;-74
2023/03/25 06:24:36;;;;;;;36.00;5.07;;;9.40;99.90;;;;;;4993480;28;20355;-74
2023/03/25 06:27:03;;;;;;;31.85;4.20;;;9.50;99.90;;;;;;5002413;28;20022;-74
2023/03/25 06:29:28;;;;;;;34.55;4.43;;;9.50;99.90;;;;;;4988239;28;20054;-74
2023/03/25 06:31:54;;;;;;;33.13;4.55;;;9.50;99.90;;;;;;4990119;28;20080;-74
2023/03/25 06:34:20;;;;;;;33.80;4.47;;;9.50;99.90;;;;;;4985982;28;20054;-73
2023/03/25 06:36:48;;;;;;;29.10;4.70;;;9.50;99.90;;;;;;4988562;28;20033;-73
2023/03/25 06:39:15;;;;;;;33.65;4.55;;;9.50;99.90;;;;;;4994435;28;20098;-73
2023/03/25 06:41:41;;;;;;;31.77;4.45;;;9.60;99.90;;;;;;4986765;28;20721;-73
2023/03/25 06:44:07;;;;;;;31.42;4.70;;;9.60;99.90;;;;;;5007889;28;20046;-73
2023/03/25 06:46:33;;;;;;;33.03;4.45;;;9.60;99.90;;;;;;4982991;28;20485;-73
2023/03/25 06:48:59;;;;;;;37.42;4.22;;;9.60;99.90;;;;;;4992991;28;20448;-73
2023/03/25 06:51:24;;;;;;;30.73;4.70;;;9.60;99.90;;;;;;4994934;28;20161;-74
2023/03/25 06:53:52;;;;;;;37.08;5.93;;;9.70;99.90;;;;;;4983743;28;20034;-74
2023/03/25 06:56:17;;;;;;;30.65;4.65;;;9.70;99.90;;;;;;4991635;28;20532;-74
2023/03/25 06:58:43;;;;;;;40.05;4.72;;;9.70;99.90;;;;;;4990103;28;20149;-75
2023/03/25 07:01:09;;;;;;;37.05;4.90;;;9.70;99.90;;;;;;4984586;28;20022;-75
2023/03/25 07:03:36;;;;;;;33.30;4.82;;;9.70;99.90;;;;;;4988638;28;20118;-73
2023/03/25 07:06:02;;;;;;;39.83;5.20;;;9.70;99.90;;;;;;4989621;28;20029;-73
2023/03/25 07:08:28;;;;;;;34.08;4.55;;;9.80;99.90;;;;;;4993528;28;20058;-74
2023/03/25 07:10:59;;;;;;;34.13;4.68;;;9.80;99.90;;;;;;4985790;28;20422;-74
2023/03/25 07:13:24;;;;;;;38.47;5.30;;;9.80;99.90;;;;;;4996728;28;20057;-74
2023/03/25 07:15:53;;;;;;;34.13;4.05;;;9.80;99.90;;;;;;4997874;28;20101;-73
2023/03/25 07:18:19;;;;;;;37.90;4.57;;;9.80;99.90;;;;;;4992412;28;20025;-73
2023/03/25 07:20:44;;;;;;;32.80;4.30;;;9.80;99.90;;;;;;4989797;28;20501;-73
2023/03/25 07:23:10;;;;;;;31.38;4.20;;;9.90;99.90;;;;;;4995247;28;20122;-74
2023/03/25 07:25:36;;;;;;;40.30;5.43;;;9.90;99.90;;;;;;4993229;28;20026;-74
2023/03/25 07:28:01;;;;;;;30.75;4.55;;;9.90;99.90;;;;;;5006656;28;20023;-74
2023/03/25 07:30:27;;;;;;;35.00;4.75;;;9.90;99.90;;;;;;4983009;28;20093;-74
2023/03/25 07:32:53;;;;;;;35.33;4.68;;;9.90;99.90;;;;;;4986010;28;20033;-74
2023/03/25 07:35:19;;;;;;;34.72;4.95;;;9.90;99.90;;;;;;4993732;28;20022;-73
2023/03/25 07:37:45;;;;;;;33.60;4.57;;;9.90;99.90;;;;;;4996579;28;20476;-74
2023/03/25 07:40:10;;;;;;;23.67;3.85;;;10.00;99.90;;;;;;4986694;28;20035;-73
2023/03/25 07:42:37;;;;;;;32.08;4.40;;;10.00;99.90;;;;;;5007133;28;20046;-74
2023/03/25 07:45:04;;;;;;;38.65;5.32;;;10.00;99.90;;;;;;4988402;28;20443;-73
2023/03/25 07:47:29;;;;;;;36.67;4.53;;;10.00;99.90;;;;;;4992106;28;20117;-72
2023/03/25 07:49:55;;;;;;;33.30;4.93;;;10.00;99.90;;;;;;5005656;28;20105;-73
2023/03/25 07:52:21;;;;;;;31.48;4.15;;;10.00;99.90;;;;;;4994174;28;20013;-74
2023/03/25 07:54:46;;;;;;;30.63;4.55;;;10.10;99.90;;;;;;4994101;28;20030;-73
2023/03/25 07:57:12;;;;;;;39.22;4.82;;;10.10;99.90;;;;;;4995056;28;20157;-73
2023/03/25 07:59:38;;;;;;;27.77;4.53;;;10.10;99.90;;;;;;4993547;28;20053;-73
2023/03/25 08:02:04;;;;;;;27.00;4.68;;;10.10;99.90;;;;;;4978584;28;20026;-73
2023/03/25 08:04:30;;;;;;;35.25;4.97;;;10.10;99.90;;;;;;4990300;28;20026;-73
2023/03/25 08:06:55;;;;;;;41.88;5.03;;;10.10;99.90;;;;;;4982468;28;20025;-73
2023/03/25 08:09:21;;;;;;;34.58;5.22;;;10.20;99.90;;;;;;4990660;28;20068;-74
2023/03/25 08:11:47;;;;;;;40.30;5.22;;;10.20;99.90;;;;;;4978249;28;20133;-73
2023/03/25 08:14:13;;;;;;;39.42;5.13;;;10.20;99.90;;;;;;4989460;28;20407;-73
2023/03/25 08:16:39;;;;;;;38.17;5.13;;;10.20;99.90;;;;;;4991036;28;20027;-73
2023/03/25 08:19:05;;;;;;;35.03;5.10;;;10.30;99.90;;;;;;4995498;28;20027;-73
2023/03/25 08:21:30;;;;;;;33.72;5.03;;;10.30;99.90;;;;;;5005950;28;20037;-73
2023/03/25 08:24:03;;;;;;;46.10;6.05;;;10.30;99.90;;;;;;4997100;28;20018;-73
2023/03/25 08:26:30;;;;;;;33.30;4.47;;;10.40;99.90;;;;;;4997097;28;20121;-73
2023/03/25 08:28:57;;;;;;;33.55;4.95;;;10.40;99.90;;;;;;4996621;28;20019;-73
2023/03/25 08:31:29;;;;;;;34.45;5.35;;;10.40;99.90;;;;;;4987007;28;20030;-73
2023/03/25 08:33:56;;;;;;;38.70;5.28;;;10.50;99.90;;;;;;4991858;28;20161;-72
2023/03/25 08:36:22;;;;;;;42.03;5.00;;;10.60;99.90;;;;;;4991998;28;20034;-74
2023/03/25 08:38:50;;;;;;;46.78;5.55;;;10.60;99.90;;;;;;4982056;28;20017;-72
2023/03/25 08:41:17;;;;;;;35.88;5.63;;;10.70;99.90;;;;;;4990841;28;20033;-73
2023/03/25 08:43:43;;;;;;;41.47;5.50;;;10.60;99.90;;;;;;4992689;28;20085;-73
2023/03/25 08:46:08;;;;;;;38.78;5.22;;;10.70;99.90;;;;;;4990182;28;20027;-73
2023/03/25 08:48:34;;;;;;;37.55;5.65;;;10.70;99.90;;;;;;4994583;28;20058;-73
2023/03/25 08:51:00;;;;;;;38.15;5.47;;;10.70;99.90;;;;;;4989737;28;20026;-73
2023/03/25 08:53:26;;;;;;;34.63;5.63;;;10.70;99.90;;;;;;4991920;28;20038;-73
2023/03/25 08:55:54;;;;;;;42.75;5.90;;;10.70;99.90;;;;;;4985023;28;20019;-74
2023/03/25 08:58:21;;;;;;;39.63;5.50;;;10.70;99.90;;;;;;4992663;28;20090;-73
2023/03/25 09:00:47;;;;;;;31.35;5.75;;;10.80;99.90;;;;;;4994744;28;20141;-73
2023/03/25 09:03:12;;;;;;;40.72;5.50;;;10.80;99.90;;;;;;4993059;28;20027;-73
2023/03/25 09:05:38;;;;;;;36.28;5.15;;;10.80;99.90;;;;;;4993916;28;20026;-72
2023/03/25 09:08:05;;;;;;;35.20;5.75;;;10.80;99.90;;;;;;4990587;28;20042;-73
2023/03/25 09:10:30;;;;;;;40.65;5.50;;;10.80;99.90;;;;;;4984829;28;20117;-73
2023/03/25 09:12:56;;;;;;;37.55;5.88;;;10.90;99.90;;;;;;4993676;28;20127;-73
2023/03/25 09:15:22;;;;;;;36.75;5.32;;;10.90;99.90;;;;;;4995875;28;20027;-73
2023/03/25 09:17:48;;;;;;;43.08;6.45;;;10.90;99.90;;;;;;4994089;28;20030;-73
2023/03/25 09:20:14;;;;;;;31.75;5.10;;;10.90;99.90;;;;;;4988768;28;20034;-73
2023/03/25 09:22:40;;;;;;;36.28;5.13;;;10.90;99.90;;;;;;4989795;28;20022;-73
2023/03/25 09:25:07;;;;;;;41.00;6.13;;;11.00;99.90;;;;;;4994422;28;20030;-73
2023/03/25 09:27:33;;;;;;;44.63;6.53;;;11.00;99.90;;;;;;4995741;28;20019;-74
2023/03/25 09:29:59;;;;;;;37.58;5.90;;;11.00;99.90;;;;;;4994634;28;20453;-73
2023/03/25 09:32:25;;;;;;;42.90;5.13;;;11.10;99.90;;;;;;4994795;28;20049;-73
2023/03/25 09:34:51;;;;;;;39.95;6.30;;;11.10;99.90;;;;;;4994330;28;20023;-73
2023/03/25 09:37:17;;;;;;;39.58;6.63;;;11.10;99.90;;;;;;4995223;28;20023;-73
2023/03/25 09:39:43;;;;;;;37.38;6.15;;;11.20;99.90;;;;;;4994958;28;20065;-73
2023/03/25 09:42:12;;;;;;;41.20;5.85;;;11.10;99.90;;;;;;4993586;28;20054;-73
2023/03/25 09:44:57;;;;;;;31.20;5.05;;;11.20;99.90;;;;;;4994426;28;20031;-73
2023/03/25 09:47:24;;;;;;;37.00;5.73;;;11.30;99.90;;;;;;4992863;28;20409;-73
2023/03/25 09:49:56;;;;;;;31.65;5.05;;;11.30;99.90;;;;;;4995146;28;20031;-72
2023/03/25 09:52:28;;;;;;;45.40;6.15;;;11.30;99.90;;;;;;4993600;28;20052;-73
2023/03/25 09:55:03;;;;;;;45.47;5.85;;;11.40;99.90;;;;;;4984768;28;20019;-73
2023/03/25 09:57:32;;;;;;;39.40;6.68;;;11.50;99.90;;;;;;4994059;28;20033;-72
2023/03/25 10:00:00;;;;;;;40.53;6.50;;;11.50;99.90;;;;;;4994165;28;20035;-72
2023/03/25 10:02:41;;;;;;;33.50;5.47;;;11.60;99.90;;;;;;4994539;28;20496;-72
2023/03/25 10:05:20;;;;;;;32.63;4.93;;;11.60;99.90;;;;;;4983237;28;20515;-72
2023/03/25 10:08:25;;;;;;;35.78;5.35;;;11.60;99.90;;;;;;4994018;28;20424;-73
2023/03/25 10:11:13;;;;;;;38.25;6.05;;;11.70;99.90;;;;;;4976935;28;20488;-73
2023/03/25 10:13:53;;;;;;;34.05;5.03;;;11.60;99.90;;;;;;4983078;28;20421;-73
2023/03/25 10:16:44;;;;;;;43.10;6.35;;;11.60;99.90;;;;;;4995307;28;20388;-73
2023/03/25 10:19:34;;;;;;;35.10;5.50;;;11.70;99.90;;;;;;4993445;28;20089;-73
2023/03/25 10:22:17;;;;;;;37.17;6.57;;;11.70;99.90;;;;;;4994530;28;20030;-73
2023/03/25 10:24:51;;;;;;;35.10;5.43;;;11.80;99.90;;;;;;4994409;28;20439;-72
2023/03/25 10:27:37;;;;;;;40.45;5.40;;;11.90;99.90;;;;;;4995001;28;20047;-73
2023/03/25 10:30:11;;;;;;;42.13;5.47;;;11.80;99.90;;;;;;4981297;28;22057;-72
2023/03/25 10:32:43;;;;;;;32.53;5.78;;;11.80;99.90;;;;;;4981900;28;20080;-73
2023/03/25 10:35:30;;;;;;;39.78;5.90;;;11.80;99.90;;;;;;4982847;28;20042;-72
2023/03/25 10:38:06;;;;;;;33.15;5.15;;;11.80;99.90;;;;;;4985525;28;20037;-72
2023/03/25 10:40:48;;;;;;;;;;;11.70;99.90;;;;;;4983132;28;20043;-73
2023/03/25 10:43:20;;;;;;;33.42;4.95;;;11.70;99.90;;;;;;4983807;28;19910;-73
2023/03/25 10:45:48;;;;;;;41.70;5.80;;;11.70;99.90;;;;;;4981226;28;20026;-73
2023/03/25 10:48:26;;;;;;;33.53;5.93;;;11.80;99.90;;;;;;4994464;28;20015;-74
2023/03/25 10:51:07;;;;;;;37.42;6.15;;;11.90;99.90;;;;;;4986084;28;20462;-73
2023/03/25 10:53:33;;;;;;;40.55;5.03;;;11.80;99.90;;;;;;4991342;28;20031;-73
2023/03/25 10:56:08;;;;;;;43.15;6.28;;;11.80;99.90;;;;;;4981614;28;20033;-74
2023/03/25 10:58:37;;;;;;;35.80;4.95;;;11.90;99.90;;;;;;4990314;28;20049;-74
2023/03/25 11:01:14;;;;;;;34.25;5.30;;;12.00;99.90;;;;;;4996360;28;20384;-75
2023/03/25 11:03:41;;;;;;;33.05;4.95;;;12.10;99.90;;;;;;4995321;28;20036;-73
2023/03/25 11:06:19;;;;;;;36.13;5.30;;;12.00;99.90;;;;;;4994001;28;20026;-72
2023/03/25 11:09:22;;;;;;;37.70;5.65;;;12.00;99.90;;;;;;4994337;28;20030;-72
2023/03/25 11:11:48;;;;;;;34.85;5.13;;;12.10;99.90;;;;;;4988377;28;20448;-73
2023/03/25 11:14:15;;;;;;;34.33;5.22;;;12.20;99.90;;;;;;4997626;28;20026;-72
2023/03/25 11:17:02;;;;;;;34.42;4.90;;;12.20;99.90;;;;;;4996808;28;20485;-73
2023/03/25 11:19:52;;;;;;;36.53;5.20;;;12.20;99.90;;;;;;4993486;28;20098;-72
2023/03/25 11:22:25;;;;;;;33.78;5.28;;;12.10;99.90;;;;;;4991948;28;20031;-73
2023/03/25 11:24:56;;;;;;;34.15;5.72;;;12.00;99.90;;;;;;4997409;28;20035;-74
2023/03/25 11:27:25;;;;;;;32.90;5.30;;;12.10;99.90;;;;;;4990014;28;20064;-73
2023/03/25 11:30:02;;;;;;;44.30;5.53;;;12.10;99.90;;;;;;4997603;28;20153;-74
2023/03/25 11:32:33;;;;;;;33.63;5.10;;;12.10;99.90;;;;;;4985778;28;20165;-73
2023/03/25 11:35:15;;;;;;;41.67;6.30;;;12.20;99.90;;;;;;5012653;28;20034;-74
2023/03/25 11:37:46;;;;;;;40.55;4.97;;;12.30;99.90;;;;;;5001253;28;20385;-73
2023/03/25 11:40:17;;;;;;;35.72;5.03;;;12.40;99.90;;;;;;4996810;28;20022;-74
2023/03/25 11:42:54;;;;;;;34.25;4.63;;;12.40;99.90;;;;;;4997582;28;20058;-73
2023/03/25 11:45:44;;;;;;;32.70;5.38;;;12.50;99.90;;;;;;4997459;28;20096;-73
2023/03/25 11:48:27;;;;;;;35.97;4.60;;;12.50;99.90;;;;;;4997800;28;20018;-74
2023/03/25 11:51:00;;;;;;;28.95;5.38;;;12.50;99.90;;;;;;4997366;28;20034;-73
2023/03/25 11:53:29;;;;;;;34.53;4.78;;;12.40;99.90;;;;;;4996948;28;20026;-74
2023/03/25 11:56:10;;;;;;;32.65;4.65;;;12.30;99.90;;;;;;4996847;28;20097;-73
2023/03/25 11:58:39;;;;;;;32.40;5.00;;;12.30;99.90;;;;;;4996186;28;20018;-72
2023/03/25 12:01:26;;;;;;;27.35;4.00;;;12.30;99.90;;;;;;4997005;28;20023;-74
2023/03/25 12:04:12;;;;;;;32.35;4.55;;;12.30;99.90;;;;;;4994851;28;20119;-72
2023/03/25 12:06:51;;;;;;;35.58;5.18;;;12.30;99.90;;;;;;4983461;28;20062;-73
2023/03/25 12:09:17;;;;;;;32.33;4.40;;;12.40;99.90;;;;;;4996918;28;20022;-73
2023/03/25 12:12:07;;;;;;;28.15;4.70;;;12.40;99.90;;;;;;4996123;28;20046;-72
2023/03/25 12:14:50;;;;;;;32.72;4.45;;;12.50;99.90;;;;;;4995773;28;20022;-73
2023/03/25 12:17:28;;;;;;;28.33;4.32;;;12.60;99.90;;;;;;4995948;28;20026;-73
2023/03/25 12:20:18;;;;;;;31.33;4.68;;;12.60;99.90;;;;;;4992346;28;20105;-73
2023/03/25 12:22:56;;;;;;;35.25;4.82;;;12.60;99.90;;;;;;4989468;28;20037;-73
2023/03/25 12:25:46;;;;;;;33.42;5.22;;;12.60;99.90;;;;;;4983835;28;20684;-73
2023/03/25 12:28:27;;;;;;;33.63;5.00;;;12.70;99.90;;;;;;4995410;28;20109;-73
2023/03/25 12:31:28;;;;;;;29.92;4.35;;;12.80;99.90;;;;;;4986940;28;20026;-72
2023/03/25 12:34:16;;;;;;;31.70;4.93;;;12.90;99.90;;;;;;4994058;28;20030;-72
2023/03/25 12:37:01;;;;;;;26.50;4.40;;;12.90;99.90;;;;;;4991729;28;20041;-73
2023/03/25 12:40:05;;;;;;;34.75;5.57;;;12.90;99.90;;;;;;4987115;28;20156;-74
2023/03/25 12:43:04;;;;;;;30.83;5.13;;;12.90;99.90;;;;;;4994821;28;20570;-73
2023/03/25 12:46:13;;;;;;;33.30;4.38;;;12.90;99.90;;;;;;4992621;28;20486;-73
2023/03/25 12:49:02;;;;;;;31.05;4.93;;;12.70;99.90;;;;;;4991897;28;20046;-72
2023/03/25 12:51:43;;;;;;;35.67;5.07;;;12.50;99.90;;;;;;4996297;28;20022;-73
2023/03/25 12:54:35;;;;;;;24.85;4.20;;;12.30;99.90;;;;;;4993025;28;20026;-73
2023/03/25 12:57:27;;;;;;;27.70;3.95;;;12.20;99.90;;;;;;4994066;28;20041;-73
2023/03/25 13:00:34;;;;;;;34.88;5.03;;;12.20;99.90;;;;;;4976697;28;20023;-73
2023/03/25 13:03:36;;;;;;;27.88;5.03;;;12.20;99.90;;;;;;4975818;28;20074;-73
2023/03/25 13:06:29;;;;;;;32.50;4.65;;;12.20;99.90;;;;;;4990965;28;20037;-74
2023/03/25 13:09:18;;;;;;;27.55;4.78;;;12.20;99.90;;;;;;4994719;28;20026;-73